sensor_id;sensor_type;location;lat;lon;timestamp;temperature;humidity
21312;DHT22;18076;52.154;10.570;2023-04-24T00:01:56;13.10;99.90
21312;DHT22;18076;52.154;10.570;2023-04-24T00:04:32;12.90;99.90
21312;DHT22;18076;52.154;10.570;2023-04-24T00:07:09;12.90;99.90
21312;DHT22;18076;52.154;10.570;2023-04-24T00:09:43;12.80;99.90
21312;DHT22;18076;52.154;10.570;2023-04-24T00:12:19;12.80;99.90
21312;DHT22;18076;52.154;10.570;2023-04-24T00:14:53;12.80;99.90
21312;DHT22;18076;52.154;10.570;2023-04-24T00:17:27;12.90;99.90
21312;DHT22;18076;52.154;10.570;2023-04-24T00:19:52;12.90;99.90
21312;DHT22;18076;52.154;10.570;2023-04-24T00:22:27;12.80;99.90
21312;DHT22;18076;52.154;10.570;2023-04-24T00:24:55;12.90;99.90
21312;DHT22;18076;52.154;10.570;2023-04-24T00:27:21;13.00;99.90
21312;DHT22;18076;52.154;10.570;2023-04-24T00:29:46;13.00;99.90
21312;DHT22;18076;52.154;10.570;2023-04-24T00:32:12;13.00;99.90
21312;DHT22;18076;52.154;10.570;2023-04-24T00:34:38;13.00;99.90
21312;DHT22;18076;52.154;10.570;2023-04-24T00:37:03;13.00;99.90
21312;DHT22;18076;52.154;10.570;2023-04-24T00:39:29;13.00;99.90
21312;DHT22;18076;52.154;10.570;2023-04-24T00:41:55;12.90;99.90
21312;DHT22;18076;52.154;10.570;2023-04-24T00:44:22;12.90;99.90
21312;DHT22;18076;52.154;10.570;2023-04-24T00:46:47;12.80;99.90
21312;DHT22;18076;52.154;10.570;2023-04-24T00:49:23;12.80;99.90
21312;DHT22;18076;52.154;10.570;2023-04-24T00:51:48;12.80;99.90
21312;DHT22;18076;52.154;10.570;2023-04-24T00:54:16;12.70;99.90
21312;DHT22;18076;52.154;10.570;2023-04-24T00:56:42;12.60;99.90
21312;DHT22;18076;52.154;10.570;2023-04-24T00:59:09;12.60;99.90
21312;DHT22;18076;52.154;10.570;2023-04-24T01:01:34;12.50;99.90
21312;DHT22;18076;52.154;10.570;2023-04-24T01:04:00;12.50;99.90
21312;DHT22;18076;52.154;10.570;2023-04-24T01:06:29;12.50;99.90
21312;DHT22;18076;52.154;10.570;2023-04-24T01:08:56;12.40;99.90
21312;DHT22;18076;52.154;10.570;2023-04-24T01:11:22;12.40;99.90
21312;DHT22;18076;52.154;10.570;2023-04-24T01:13:48;12.30;99.90
21312;DHT22;18076;52.154;10.570;2023-04-24T01:16:14;12.30;99.90
21312;DHT22;18076;52.154;10.570;2023-04-24T01:18:40;12.30;99.90
21312;DHT22;18076;52.154;10.570;2023-04-24T01:21:06;12.20;99.90
21312;DHT22;18076;52.154;10.570;2023-04-24T01:23:33;12.30;99.90
21312;DHT22;18076;52.154;10.570;2023-04-24T01:25:58;12.20;99.90
21312;DHT22;18076;52.154;10.570;2023-04-24T01:28:24;12.20;99.90
21312;DHT22;18076;52.154;10.570;2023-04-24T01:30:50;12.20;99.90
21312;DHT22;18076;52.154;10.570;2023-04-24T01:33:15;12.20;99.90
21312;DHT22;18076;52.154;10.570;2023-04-24T01:35:41;12.20;99.90
21312;DHT22;18076;52.154;10.570;2023-04-24T01:38:07;12.20;99.90
21312;DHT22;18076;52.154;10.570;2023-04-24T01:40:32;12.20;99.90
21312;DHT22;18076;52.154;10.570;2023-04-24T01:42:58;12.20;99.90
21312;DHT22;18076;52.154;10.570;2023-04-24T01:45:24;12.10;99.90
21312;DHT22;18076;52.154;10.570;2023-04-24T01:47:50;12.10;99.90
21312;DHT22;18076;52.154;10.570;2023-04-24T01:50:16;12.10;99.90
21312;DHT22;18076;52.154;10.570;2023-04-24T01:52:42;12.10;99.90
21312;DHT22;18076;52.154;10.570;2023-04-24T01:55:07;12.10;99.90
21312;DHT22;18076;52.154;10.570;2023-04-24T01:57:33;12.00;99.90
21312;DHT22;18076;52.154;10.570;2023-04-24T01:59:58;12.00;99.90
21312;DHT22;18076;52.154;10.570;2023-04-24T02:02:24;12.00;99.90
21312;DHT22;18076;52.154;10.570;2023-04-24T02:04:55;11.90;99.90
21312;DHT22;18076;52.154;10.570;2023-04-24T02:07:21;11.90;99.90
21312;DHT22;18076;52.154;10.570;2023-04-24T02:09:46;11.80;99.90
21312;DHT22;18076;52.154;10.570;2023-04-24T02:12:12;11.80;99.90
21312;DHT22;18076;52.154;10.570;2023-04-24T02:14:38;11.80;99.90
21312;DHT22;18076;52.154;10.570;2023-04-24T02:17:03;11.80;99.90
21312;DHT22;18076;52.154;10.570;2023-04-24T02:19:30;11.80;99.90
21312;DHT22;18076;52.154;10.570;2023-04-24T02:21:55;11.80;99.90
21312;DHT22;18076;52.154;10.570;2023-04-24T02:24:21;11.70;99.90
21312;DHT22;18076;52.154;10.570;2023-04-24T02:26:46;11.70;99.90
21312;DHT22;18076;52.154;10.570;2023-04-24T02:29:12;11.70;99.90
21312;DHT22;18076;52.154;10.570;2023-04-24T02:31:38;11.70;99.90
21312;DHT22;18076;52.154;10.570;2023-04-24T02:34:03;11.70;99.90
21312;DHT22;18076;52.154;10.570;2023-04-24T02:36:29;11.70;99.90
21312;DHT22;18076;52.154;10.570;2023-04-24T02:38:55;11.70;99.90
21312;DHT22;18076;52.154;10.570;2023-04-24T02:41:21;11.60;99.90
21312;DHT22;18076;52.154;10.570;2023-04-24T02:43:46;11.60;99.90
21312;DHT22;18076;52.154;10.570;2023-04-24T02:46:12;11.60;99.90
21312;DHT22;18076;52.154;10.570;2023-04-24T02:48:37;11.60;99.90
21312;DHT22;18076;52.154;10.570;2023-04-24T02:51:03;11.60;99.90
21312;DHT22;18076;52.154;10.570;2023-04-24T02:53:29;11.60;99.90
21312;DHT22;18076;52.154;10.570;2023-04-24T02:55:55;11.60;99.90
21312;DHT22;18076;52.154;10.570;2023-04-24T02:58:21;11.60;99.90
21312;DHT22;18076;52.154;10.570;2023-04-24T03:00:47;11.60;99.90
21312;DHT22;18076;52.154;10.570;2023-04-24T03:03:12;11.50;99.90
21312;DHT22;18076;52.154;10.570;2023-04-24T03:05:38;11.60;99.90
21312;DHT22;18076;52.154;10.570;2023-04-24T03:08:04;11.40;99.90
21312;DHT22;18076;52.154;10.570;2023-04-24T03:10:30;11.50;99.90
21312;DHT22;18076;52.154;10.570;2023-04-24T03:12:55;11.40;99.90
21312;DHT22;18076;52.154;10.570;2023-04-24T03:15:21;11.30;99.90
21312;DHT22;18076;52.154;10.570;2023-04-24T03:17:46;11.20;99.90
21312;DHT22;18076;52.154;10.570;2023-04-24T03:20:12;11.10;99.90
21312;DHT22;18076;52.154;10.570;2023-04-24T03:22:38;11.00;99.90
21312;DHT22;18076;52.154;10.570;2023-04-24T03:25:03;11.00;99.90
21312;DHT22;18076;52.154;10.570;2023-04-24T03:27:29;10.90;99.90
21312;DHT22;18076;52.154;10.570;2023-04-24T03:29:55;10.90;99.90
21312;DHT22;18076;52.154;10.570;2023-04-24T03:32:21;10.80;99.90
21312;DHT22;18076;52.154;10.570;2023-04-24T03:34:50;10.80;99.90
21312;DHT22;18076;52.154;10.570;2023-04-24T03:37:16;10.80;99.90
21312;DHT22;18076;52.154;10.570;2023-04-24T03:39:42;10.70;99.90
21312;DHT22;18076;52.154;10.570;2023-04-24T03:42:07;10.60;99.90
21312;DHT22;18076;52.154;10.570;2023-04-24T03:44:34;10.60;99.90
21312;DHT22;18076;52.154;10.570;2023-04-24T03:46:59;10.60;99.90
21312;DHT22;18076;52.154;10.570;2023-04-24T03:49:25;10.50;99.90
21312;DHT22;18076;52.154;10.570;2023-04-24T03:51:51;10.50;99.90
21312;DHT22;18076;52.154;10.570;2023-04-24T03:54:17;10.50;99.90
21312;DHT22;18076;52.154;10.570;2023-04-24T03:56:43;10.50;99.90
21312;DHT22;18076;52.154;10.570;2023-04-24T03:59:08;10.60;99.90
21312;DHT22;18076;52.154;10.570;2023-04-24T04:01:34;10.50;99.90
21312;DHT22;18076;52.154;10.570;2023-04-24T04:04:02;10.40;99.90
21312;DHT22;18076;52.154;10.570;2023-04-24T04:06:28;10.30;99.90
21312;DHT22;18076;52.154;10.570;2023-04-24T04:08:54;10.20;99.90
21312;DHT22;18076;52.154;10.570;2023-04-24T04:11:19;10.10;99.90
21312;DHT22;18076;52.154;10.570;2023-04-24T04:13:45;9.90;99.90
21312;DHT22;18076;52.154;10.570;2023-04-24T04:16:13;9.90;99.90
21312;DHT22;18076;52.154;10.570;2023-04-24T04:18:38;9.90;99.90
21312;DHT22;18076;52.154;10.570;2023-04-24T04:21:04;9.80;99.90
21312;DHT22;18076;52.154;10.570;2023-04-24T04:23:30;9.80;99.90
21312;DHT22;18076;52.154;10.570;2023-04-24T04:25:55;9.90;99.90
21312;DHT22;18076;52.154;10.570;2023-04-24T04:28:21;10.00;99.90
21312;DHT22;18076;52.154;10.570;2023-04-24T04:30:46;10.10;99.90
21312;DHT22;18076;52.154;10.570;2023-04-24T04:33:12;10.20;99.90
21312;DHT22;18076;52.154;10.570;2023-04-24T04:35:38;10.10;99.90
21312;DHT22;18076;52.154;10.570;2023-04-24T04:38:03;9.90;99.90
21312;DHT22;18076;52.154;10.570;2023-04-24T04:40:29;9.80;99.90
21312;DHT22;18076;52.154;10.570;2023-04-24T04:42:55;9.80;99.90
21312;DHT22;18076;52.154;10.570;2023-04-24T04:45:22;9.80;99.90
21312;DHT22;18076;52.154;10.570;2023-04-24T04:47:52;9.70;99.90
21312;DHT22;18076;52.154;10.570;2023-04-24T04:50:17;9.80;99.90
21312;DHT22;18076;52.154;10.570;2023-04-24T04:52:44;9.70;99.90
21312;DHT22;18076;52.154;10.570;2023-04-24T04:55:12;9.80;99.90
21312;DHT22;18076;52.154;10.570;2023-04-24T04:57:38;9.80;99.90
21312;DHT22;18076;52.154;10.570;2023-04-24T05:00:04;9.80;99.90
21312;DHT22;18076;52.154;10.570;2023-04-24T05:02:30;9.90;99.90
21312;DHT22;18076;52.154;10.570;2023-04-24T05:04:55;9.90;99.90
21312;DHT22;18076;52.154;10.570;2023-04-24T05:07:21;10.00;99.90
21312;DHT22;18076;52.154;10.570;2023-04-24T05:09:47;10.00;99.90
21312;DHT22;18076;52.154;10.570;2023-04-24T05:12:12;10.10;99.90
21312;DHT22;18076;52.154;10.570;2023-04-24T05:14:38;10.20;99.90
21312;DHT22;18076;52.154;10.570;2023-04-24T05:17:03;10.30;99.90
21312;DHT22;18076;52.154;10.570;2023-04-24T05:19:29;10.40;99.90
21312;DHT22;18076;52.154;10.570;2023-04-24T05:21:55;10.50;99.90
21312;DHT22;18076;52.154;10.570;2023-04-24T05:24:20;10.60;99.90
21312;DHT22;18076;52.154;10.570;2023-04-24T05:26:46;10.70;99.90
21312;DHT22;18076;52.154;10.570;2023-04-24T05:29:12;10.70;99.90
21312;DHT22;18076;52.154;10.570;2023-04-24T05:31:37;10.70;99.90
21312;DHT22;18076;52.154;10.570;2023-04-24T05:34:03;10.80;99.90
21312;DHT22;18076;52.154;10.570;2023-04-24T05:36:28;10.80;99.90
21312;DHT22;18076;52.154;10.570;2023-04-24T05:38:54;10.90;99.90
21312;DHT22;18076;52.154;10.570;2023-04-24T05:41:20;11.00;99.90
21312;DHT22;18076;52.154;10.570;2023-04-24T05:43:46;11.10;99.90
21312;DHT22;18076;52.154;10.570;2023-04-24T05:46:12;11.20;99.90
21312;DHT22;18076;52.154;10.570;2023-04-24T05:48:37;11.20;99.90
21312;DHT22;18076;52.154;10.570;2023-04-24T05:51:03;11.20;99.90
21312;DHT22;18076;52.154;10.570;2023-04-24T05:53:28;11.40;99.90
21312;DHT22;18076;52.154;10.570;2023-04-24T05:55:54;11.50;99.90
21312;DHT22;18076;52.154;10.570;2023-04-24T05:58:20;11.60;99.90
21312;DHT22;18076;52.154;10.570;2023-04-24T06:00:45;11.70;99.90
21312;DHT22;18076;52.154;10.570;2023-04-24T06:03:12;11.90;99.90
21312;DHT22;18076;52.154;10.570;2023-04-24T06:05:37;12.00;99.90
21312;DHT22;18076;52.154;10.570;2023-04-24T06:08:03;12.30;99.90
21312;DHT22;18076;52.154;10.570;2023-04-24T06:10:28;12.40;99.90
21312;DHT22;18076;52.154;10.570;2023-04-24T06:12:54;12.60;99.90
21312;DHT22;18076;52.154;10.570;2023-04-24T06:15:21;12.80;99.90
21312;DHT22;18076;52.154;10.570;2023-04-24T06:17:47;13.10;99.90
21312;DHT22;18076;52.154;10.570;2023-04-24T06:20:12;13.40;99.90
21312;DHT22;18076;52.154;10.570;2023-04-24T06:22:38;13.60;99.90
21312;DHT22;18076;52.154;10.570;2023-04-24T06:25:12;13.80;99.90
21312;DHT22;18076;52.154;10.570;2023-04-24T06:27:39;13.80;99.90
21312;DHT22;18076;52.154;10.570;2023-04-24T06:30:04;13.70;99.90
21312;DHT22;18076;52.154;10.570;2023-04-24T06:32:30;13.50;99.90
21312;DHT22;18076;52.154;10.570;2023-04-24T06:34:56;13.40;99.90
21312;DHT22;18076;52.154;10.570;2023-04-24T06:37:21;13.40;99.90
21312;DHT22;18076;52.154;10.570;2023-04-24T06:39:48;13.30;99.90
21312;DHT22;18076;52.154;10.570;2023-04-24T06:42:13;13.20;99.90
21312;DHT22;18076;52.154;10.570;2023-04-24T06:44:39;13.20;99.90
21312;DHT22;18076;52.154;10.570;2023-04-24T06:47:08;13.10;99.90
21312;DHT22;18076;52.154;10.570;2023-04-24T06:49:37;13.10;99.90
21312;DHT22;18076;52.154;10.570;2023-04-24T06:52:02;13.10;99.90
21312;DHT22;18076;52.154;10.570;2023-04-24T06:54:30;13.20;99.90
21312;DHT22;18076;52.154;10.570;2023-04-24T07:00:07;13.50;99.90
21312;DHT22;18076;52.154;10.570;2023-04-24T07:02:46;13.50;99.90
21312;DHT22;18076;52.154;10.570;2023-04-24T07:05:12;13.70;99.90
21312;DHT22;18076;52.154;10.570;2023-04-24T07:07:38;13.90;99.90
21312;DHT22;18076;52.154;10.570;2023-04-24T07:10:05;13.90;99.90
21312;DHT22;18076;52.154;10.570;2023-04-24T07:19:07;14.50;99.90
21312;DHT22;18076;52.154;10.570;2023-04-24T07:21:32;14.40;99.90
21312;DHT22;18076;52.154;10.570;2023-04-24T07:23:58;14.30;99.90
21312;DHT22;18076;52.154;10.570;2023-04-24T07:26:24;14.10;99.90
21312;DHT22;18076;52.154;10.570;2023-04-24T07:28:50;13.80;99.90
21312;DHT22;18076;52.154;10.570;2023-04-24T07:31:16;13.70;99.90
21312;DHT22;18076;52.154;10.570;2023-04-24T07:33:42;13.60;99.90
21312;DHT22;18076;52.154;10.570;2023-04-24T07:36:07;13.60;99.90
21312;DHT22;18076;52.154;10.570;2023-04-24T07:38:33;13.40;99.90
21312;DHT22;18076;52.154;10.570;2023-04-24T07:40:59;12.70;99.90
21312;DHT22;18076;52.154;10.570;2023-04-24T07:43:46;12.10;99.90
21312;DHT22;18076;52.154;10.570;2023-04-24T07:46:12;11.60;99.90
21312;DHT22;18076;52.154;10.570;2023-04-24T07:48:37;11.30;99.90
21312;DHT22;18076;52.154;10.570;2023-04-24T07:51:03;11.20;99.90
21312;DHT22;18076;52.154;10.570;2023-04-24T07:53:29;11.10;99.90
21312;DHT22;18076;52.154;10.570;2023-04-24T07:56:00;11.00;99.90
21312;DHT22;18076;52.154;10.570;2023-04-24T07:58:26;11.00;99.90
21312;DHT22;18076;52.154;10.570;2023-04-24T08:00:51;11.10;99.90
21312;DHT22;18076;52.154;10.570;2023-04-24T08:03:17;11.20;99.90
21312;DHT22;18076;52.154;10.570;2023-04-24T08:05:45;11.20;99.90
21312;DHT22;18076;52.154;10.570;2023-04-24T08:08:10;11.40;99.90
21312;DHT22;18076;52.154;10.570;2023-04-24T08:10:36;11.50;99.90
21312;DHT22;18076;52.154;10.570;2023-04-24T08:13:01;11.60;99.90
21312;DHT22;18076;52.154;10.570;2023-04-24T08:15:27;11.70;99.90
21312;DHT22;18076;52.154;10.570;2023-04-24T08:17:53;11.80;99.90
21312;DHT22;18076;52.154;10.570;2023-04-24T08:20:19;12.00;99.90
21312;DHT22;18076;52.154;10.570;2023-04-24T08:22:44;12.10;99.90
21312;DHT22;18076;52.154;10.570;2023-04-24T08:25:12;12.40;99.90
21312;DHT22;18076;52.154;10.570;2023-04-24T08:27:38;12.90;99.90
21312;DHT22;18076;52.154;10.570;2023-04-24T08:30:04;13.60;99.90
21312;DHT22;18076;52.154;10.570;2023-04-24T08:32:30;14.10;99.90
21312;DHT22;18076;52.154;10.570;2023-04-24T08:34:56;14.20;99.90
21312;DHT22;18076;52.154;10.570;2023-04-24T08:56:09;16.40;99.90
21312;DHT22;18076;52.154;10.570;2023-04-24T09:05:11;15.60;99.90
21312;DHT22;18076;52.154;10.570;2023-04-24T09:07:40;15.90;99.90
21312;DHT22;18076;52.154;10.570;2023-04-24T09:10:07;16.70;99.90
21312;DHT22;18076;52.154;10.570;2023-04-24T09:12:34;17.10;99.90
21312;DHT22;18076;52.154;10.570;2023-04-24T09:15:00;17.10;99.90
21312;DHT22;18076;52.154;10.570;2023-04-24T09:17:28;16.50;99.90
21312;DHT22;18076;52.154;10.570;2023-04-24T09:19:54;15.80;99.90
21312;DHT22;18076;52.154;10.570;2023-04-24T09:22:20;15.90;99.90
21312;DHT22;18076;52.154;10.570;2023-04-24T09:24:46;16.50;99.90
21312;DHT22;18076;52.154;10.570;2023-04-24T09:27:12;16.70;99.90
21312;DHT22;18076;52.154;10.570;2023-04-24T09:29:38;16.50;99.90
21312;DHT22;18076;52.154;10.570;2023-04-24T09:32:17;15.80;99.90
21312;DHT22;18076;52.154;10.570;2023-04-24T09:34:43;15.40;99.90
21312;DHT22;18076;52.154;10.570;2023-04-24T09:37:09;15.10;99.90
21312;DHT22;18076;52.154;10.570;2023-04-24T09:39:34;14.90;99.90
21312;DHT22;18076;52.154;10.570;2023-04-24T09:42:00;14.90;99.90
21312;DHT22;18076;52.154;10.570;2023-04-24T09:44:26;14.60;99.90
21312;DHT22;18076;52.154;10.570;2023-04-24T09:46:54;14.40;99.90
21312;DHT22;18076;52.154;10.570;2023-04-24T09:49:29;14.20;99.90
21312;DHT22;18076;52.154;10.570;2023-04-24T09:52:02;14.20;99.90
21312;DHT22;18076;52.154;10.570;2023-04-24T09:54:32;14.10;99.90
21312;DHT22;18076;52.154;10.570;2023-04-24T09:56:58;14.20;99.90
21312;DHT22;18076;52.154;10.570;2023-04-24T09:59:25;14.20;99.90
21312;DHT22;18076;52.154;10.570;2023-04-24T10:01:50;14.30;99.90
21312;DHT22;18076;52.154;10.570;2023-04-24T10:06:43;15.00;99.90
21312;DHT22;18076;52.154;10.570;2023-04-24T10:09:09;15.30;99.90
21312;DHT22;18076;52.154;10.570;2023-04-24T10:11:37;15.20;99.90
21312;DHT22;18076;52.154;10.570;2023-04-24T10:14:02;15.10;99.90
21312;DHT22;18076;52.154;10.570;2023-04-24T10:16:28;15.20;99.90
21312;DHT22;18076;52.154;10.570;2023-04-24T10:18:55;15.00;99.90
21312;DHT22;18076;52.154;10.570;2023-04-24T10:21:23;14.90;99.90
21312;DHT22;18076;52.154;10.570;2023-04-24T10:23:48;14.90;99.90
21312;DHT22;18076;52.154;10.570;2023-04-24T10:26:14;14.80;99.90
21312;DHT22;18076;52.154;10.570;2023-04-24T10:28:46;14.80;99.90
21312;DHT22;18076;52.154;10.570;2023-04-24T10:31:12;14.60;99.90
21312;DHT22;18076;52.154;10.570;2023-04-24T10:33:38;14.40;99.90
21312;DHT22;18076;52.154;10.570;2023-04-24T10:36:06;14.30;99.90
21312;DHT22;18076;52.154;10.570;2023-04-24T10:38:32;14.30;99.90
21312;DHT22;18076;52.154;10.570;2023-04-24T10:41:09;14.50;99.90
21312;DHT22;18076;52.154;10.570;2023-04-24T10:43:35;14.50;99.90
21312;DHT22;18076;52.154;10.570;2023-04-24T10:46:02;14.30;99.90
21312;DHT22;18076;52.154;10.570;2023-04-24T10:48:28;14.20;99.90
21312;DHT22;18076;52.154;10.570;2023-04-24T10:50:54;14.00;99.90
21312;DHT22;18076;52.154;10.570;2023-04-24T10:53:20;13.90;99.90
21312;DHT22;18076;52.154;10.570;2023-04-24T10:55:47;13.80;99.90
21312;DHT22;18076;52.154;10.570;2023-04-24T10:58:13;13.80;99.90
21312;DHT22;18076;52.154;10.570;2023-04-24T11:00:42;13.70;99.90
21312;DHT22;18076;52.154;10.570;2023-04-24T11:03:22;13.80;99.90
21312;DHT22;18076;52.154;10.570;2023-04-24T11:08:27;14.00;99.90
21312;DHT22;18076;52.154;10.570;2023-04-24T11:21:43;16.80;99.90
21312;DHT22;18076;52.154;10.570;2023-04-24T11:26:58;16.60;99.90
21312;DHT22;18076;52.154;10.570;2023-04-24T11:29:46;16.20;99.90
21312;DHT22;18076;52.154;10.570;2023-04-24T11:32:23;16.10;99.90
21312;DHT22;18076;52.154;10.570;2023-04-24T11:34:49;15.60;99.90
21312;DHT22;18076;52.154;10.570;2023-04-24T11:37:15;15.20;99.90
21312;DHT22;18076;52.154;10.570;2023-04-24T11:39:41;15.10;99.90
21312;DHT22;18076;52.154;10.570;2023-04-24T11:42:07;15.30;99.90
21312;DHT22;18076;52.154;10.570;2023-04-24T11:44:36;15.30;99.90
21312;DHT22;18076;52.154;10.570;2023-04-24T11:47:05;15.30;99.90
21312;DHT22;18076;52.154;10.570;2023-04-24T11:49:31;15.20;99.90
21312;DHT22;18076;52.154;10.570;2023-04-24T11:51:56;14.90;99.90
21312;DHT22;18076;52.154;10.570;2023-04-24T11:54:22;14.70;99.90
21312;DHT22;18076;52.154;10.570;2023-04-24T11:56:47;14.50;99.90
21312;DHT22;18076;52.154;10.570;2023-04-24T11:59:14;14.40;99.90
21312;DHT22;18076;52.154;10.570;2023-04-24T12:01:43;14.60;99.90
21312;DHT22;18076;52.154;10.570;2023-04-24T12:04:09;14.70;99.90
21312;DHT22;18076;52.154;10.570;2023-04-24T12:06:35;14.80;99.90
21312;DHT22;18076;52.154;10.570;2023-04-24T12:09:01;15.40;99.90
21312;DHT22;18076;52.154;10.570;2023-04-24T12:11:26;16.00;99.90
21312;DHT22;18076;52.154;10.570;2023-04-24T12:13:52;16.10;99.90
21312;DHT22;18076;52.154;10.570;2023-04-24T12:16:17;16.00;99.90
21312;DHT22;18076;52.154;10.570;2023-04-24T12:18:43;15.80;99.90
21312;DHT22;18076;52.154;10.570;2023-04-24T12:21:19;15.70;99.90
21312;DHT22;18076;52.154;10.570;2023-04-24T12:23:45;15.40;99.90
21312;DHT22;18076;52.154;10.570;2023-04-24T12:26:11;15.20;99.90
21312;DHT22;18076;52.154;10.570;2023-04-24T12:28:37;15.60;99.90
21312;DHT22;18076;52.154;10.570;2023-04-24T12:31:03;15.70;99.90
21312;DHT22;18076;52.154;10.570;2023-04-24T12:33:32;15.60;99.90
21312;DHT22;18076;52.154;10.570;2023-04-24T12:35:58;15.80;99.90
21312;DHT22;18076;52.154;10.570;2023-04-24T12:38:25;15.90;99.90
21312;DHT22;18076;52.154;10.570;2023-04-24T12:41:03;15.90;99.90
21312;DHT22;18076;52.154;10.570;2023-04-24T12:43:29;15.50;99.90
21312;DHT22;18076;52.154;10.570;2023-04-24T12:45:55;15.40;99.90
21312;DHT22;18076;52.154;10.570;2023-04-24T12:48:20;15.10;99.90
21312;DHT22;18076;52.154;10.570;2023-04-24T12:50:47;14.70;99.90
21312;DHT22;18076;52.154;10.570;2023-04-24T12:53:13;14.40;99.90
21312;DHT22;18076;52.154;10.570;2023-04-24T12:55:38;14.30;99.90
21312;DHT22;18076;52.154;10.570;2023-04-24T12:58:04;14.20;99.90
21312;DHT22;18076;52.154;10.570;2023-04-24T13:00:29;14.20;99.90
21312;DHT22;18076;52.154;10.570;2023-04-24T13:02:55;14.60;99.90
21312;DHT22;18076;52.154;10.570;2023-04-24T13:05:22;14.50;99.90
21312;DHT22;18076;52.154;10.570;2023-04-24T13:07:48;14.30;99.90
21312;DHT22;18076;52.154;10.570;2023-04-24T13:10:13;14.10;99.90
21312;DHT22;18076;52.154;10.570;2023-04-24T13:12:39;13.90;99.90
21312;DHT22;18076;52.154;10.570;2023-04-24T13:15:05;13.80;99.90
21312;DHT22;18076;52.154;10.570;2023-04-24T13:17:31;13.70;99.90
21312;DHT22;18076;52.154;10.570;2023-04-24T13:19:57;13.50;99.90
21312;DHT22;18076;52.154;10.570;2023-04-24T13:22:22;13.50;99.90
21312;DHT22;18076;52.154;10.570;2023-04-24T13:24:48;13.50;99.90
21312;DHT22;18076;52.154;10.570;2023-04-24T13:27:17;14.00;99.90
21312;DHT22;18076;52.154;10.570;2023-04-24T13:29:42;14.10;99.90
21312;DHT22;18076;52.154;10.570;2023-04-24T13:32:08;13.90;99.90
21312;DHT22;18076;52.154;10.570;2023-04-24T13:34:34;13.60;99.90
21312;DHT22;18076;52.154;10.570;2023-04-24T13:37:00;13.30;99.90
21312;DHT22;18076;52.154;10.570;2023-04-24T13:39:26;13.20;99.90
21312;DHT22;18076;52.154;10.570;2023-04-24T13:41:51;13.00;99.90
21312;DHT22;18076;52.154;10.570;2023-04-24T13:44:17;12.90;99.90
21312;DHT22;18076;52.154;10.570;2023-04-24T13:46:44;12.80;99.90
21312;DHT22;18076;52.154;10.570;2023-04-24T13:49:10;12.80;99.90
21312;DHT22;18076;52.154;10.570;2023-04-24T13:51:36;12.80;99.90
21312;DHT22;18076;52.154;10.570;2023-04-24T13:54:02;12.90;99.90
21312;DHT22;18076;52.154;10.570;2023-04-24T13:56:28;12.80;99.90
21312;DHT22;18076;52.154;10.570;2023-04-24T13:58:53;12.70;99.90
21312;DHT22;18076;52.154;10.570;2023-04-24T14:01:22;12.70;99.90
21312;DHT22;18076;52.154;10.570;2023-04-24T14:03:51;12.40;99.90
21312;DHT22;18076;52.154;10.570;2023-04-24T14:06:20;12.30;99.90
21312;DHT22;18076;52.154;10.570;2023-04-24T14:08:46;12.30;99.90
21312;DHT22;18076;52.154;10.570;2023-04-24T14:11:12;12.10;99.90
21312;DHT22;18076;52.154;10.570;2023-04-24T14:13:37;12.10;99.90
21312;DHT22;18076;52.154;10.570;2023-04-24T14:16:03;11.90;99.90
21312;DHT22;18076;52.154;10.570;2023-04-24T14:18:29;11.80;99.90
21312;DHT22;18076;52.154;10.570;2023-04-24T14:20:55;11.70;99.90
21312;DHT22;18076;52.154;10.570;2023-04-24T14:23:20;11.70;99.90
21312;DHT22;18076;52.154;10.570;2023-04-24T14:25:46;11.60;99.90
21312;DHT22;18076;52.154;10.570;2023-04-24T14:28:16;11.60;99.90
21312;DHT22;18076;52.154;10.570;2023-04-24T14:30:41;11.50;99.90
21312;DHT22;18076;52.154;10.570;2023-04-24T14:33:07;11.50;99.90
21312;DHT22;18076;52.154;10.570;2023-04-24T14:35:33;11.50;99.90
21312;DHT22;18076;52.154;10.570;2023-04-24T14:38:00;11.50;99.90
21312;DHT22;18076;52.154;10.570;2023-04-24T14:40:26;11.40;99.90
21312;DHT22;18076;52.154;10.570;2023-04-24T14:42:51;11.20;99.90
21312;DHT22;18076;52.154;10.570;2023-04-24T14:45:17;11.20;99.90
21312;DHT22;18076;52.154;10.570;2023-04-24T14:47:43;11.10;99.90
21312;DHT22;18076;52.154;10.570;2023-04-24T14:50:08;11.00;99.90
21312;DHT22;18076;52.154;10.570;2023-04-24T14:52:34;11.00;99.90
21312;DHT22;18076;52.154;10.570;2023-04-24T14:55:01;11.00;99.90
21312;DHT22;18076;52.154;10.570;2023-04-24T14:57:26;10.90;99.90
21312;DHT22;18076;52.154;10.570;2023-04-24T14:59:52;10.70;99.90
21312;DHT22;18076;52.154;10.570;2023-04-24T15:02:17;10.60;99.90
21312;DHT22;18076;52.154;10.570;2023-04-24T15:04:43;10.50;99.90
21312;DHT22;18076;52.154;10.570;2023-04-24T15:07:09;10.40;99.90
21312;DHT22;18076;52.154;10.570;2023-04-24T15:09:34;10.40;99.90
21312;DHT22;18076;52.154;10.570;2023-04-24T15:12:00;10.40;99.90
21312;DHT22;18076;52.154;10.570;2023-04-24T15:14:26;10.30;99.90
21312;DHT22;18076;52.154;10.570;2023-04-24T15:16:52;10.40;99.90
21312;DHT22;18076;52.154;10.570;2023-04-24T15:19:18;10.50;99.90
21312;DHT22;18076;52.154;10.570;2023-04-24T15:21:43;10.50;99.90
21312;DHT22;18076;52.154;10.570;2023-04-24T15:24:09;10.70;99.90
21312;DHT22;18076;52.154;10.570;2023-04-24T15:26:35;10.70;99.90
21312;DHT22;18076;52.154;10.570;2023-04-24T15:29:01;10.70;99.90
21312;DHT22;18076;52.154;10.570;2023-04-24T15:31:26;10.70;99.90
21312;DHT22;18076;52.154;10.570;2023-04-24T15:33:52;10.60;99.90
21312;DHT22;18076;52.154;10.570;2023-04-24T15:36:18;10.50;99.90
21312;DHT22;18076;52.154;10.570;2023-04-24T15:38:44;10.40;99.90
21312;DHT22;18076;52.154;10.570;2023-04-24T15:41:09;10.30;99.90
21312;DHT22;18076;52.154;10.570;2023-04-24T15:43:35;10.20;99.90
21312;DHT22;18076;52.154;10.570;2023-04-24T15:46:01;10.10;99.90
21312;DHT22;18076;52.154;10.570;2023-04-24T15:48:27;10.00;99.90
21312;DHT22;18076;52.154;10.570;2023-04-24T15:50:52;9.90;99.90
21312;DHT22;18076;52.154;10.570;2023-04-24T15:53:18;9.80;99.90
21312;DHT22;18076;52.154;10.570;2023-04-24T15:55:49;9.70;99.90
21312;DHT22;18076;52.154;10.570;2023-04-24T15:58:16;9.70;99.90
21312;DHT22;18076;52.154;10.570;2023-04-24T16:00:41;9.60;99.90
21312;DHT22;18076;52.154;10.570;2023-04-24T16:03:07;9.60;99.90
21312;DHT22;18076;52.154;10.570;2023-04-24T16:05:32;9.60;99.90
21312;DHT22;18076;52.154;10.570;2023-04-24T16:07:58;9.70;99.90